sensor_id;sensor_type;location;lat;lon;timestamp;P1;durP1;ratioP1;P2;durP2;ratioP2
30299;SDS011;17110;52.602;12.998;2023-04-25T00:02:19;5.22;;;3.45;;
30299;SDS011;17110;52.602;12.998;2023-04-25T00:04:45;6.70;;;4.63;;
30299;SDS011;17110;52.602;12.998;2023-04-25T00:07:11;6.88;;;3.75;;
30299;SDS011;17110;52.602;12.998;2023-04-25T00:09:37;9.43;;;4.10;;
30299;SDS011;17110;52.602;12.998;2023-04-25T00:12:03;8.07;;;3.95;;
30299;SDS011;17110;52.602;12.998;2023-04-25T00:14:29;10.50;;;4.47;;
30299;SDS011;17110;52.602;12.998;2023-04-25T00:16:55;5.10;;;4.00;;
30299;SDS011;17110;52.602;12.998;2023-04-25T00:19:21;10.57;;;4.43;;
30299;SDS011;17110;52.602;12.998;2023-04-25T00:21:46;7.40;;;4.55;;
30299;SDS011;17110;52.602;12.998;2023-04-25T00:26:42;7.85;;;4.40;;
30299;SDS011;17110;52.602;12.998;2023-04-25T00:29:07;8.25;;;4.60;;
30299;SDS011;17110;52.602;12.998;2023-04-25T00:31:33;9.93;;;4.93;;
30299;SDS011;17110;52.602;12.998;2023-04-25T00:33:59;8.88;;;3.90;;
30299;SDS011;17110;52.602;12.998;2023-04-25T00:36:24;9.65;;;5.30;;
30299;SDS011;17110;52.602;12.998;2023-04-25T00:38:50;9.80;;;5.25;;
30299;SDS011;17110;52.602;12.998;2023-04-25T00:41:17;11.23;;;5.13;;
30299;SDS011;17110;52.602;12.998;2023-04-25T00:43:44;11.82;;;5.32;;
30299;SDS011;17110;52.602;12.998;2023-04-25T00:46:10;7.85;;;4.38;;
30299;SDS011;17110;52.602;12.998;2023-04-25T00:48:36;8.48;;;4.43;;
30299;SDS011;17110;52.602;12.998;2023-04-25T00:51:01;10.82;;;5.03;;
30299;SDS011;17110;52.602;12.998;2023-04-25T00:53:27;10.02;;;5.15;;
30299;SDS011;17110;52.602;12.998;2023-04-25T00:55:54;8.27;;;4.53;;
30299;SDS011;17110;52.602;12.998;2023-04-25T00:58:20;7.80;;;4.50;;
30299;SDS011;17110;52.602;12.998;2023-04-25T01:00:47;7.75;;;4.80;;
30299;SDS011;17110;52.602;12.998;2023-04-25T01:03:15;7.60;;;4.70;;
30299;SDS011;17110;52.602;12.998;2023-04-25T01:05:42;8.55;;;4.55;;
30299;SDS011;17110;52.602;12.998;2023-04-25T01:08:08;8.38;;;4.50;;
30299;SDS011;17110;52.602;12.998;2023-04-25T01:10:34;11.55;;;5.50;;
30299;SDS011;17110;52.602;12.998;2023-04-25T01:13:00;10.60;;;5.75;;
30299;SDS011;17110;52.602;12.998;2023-04-25T01:15:26;8.52;;;5.00;;
30299;SDS011;17110;52.602;12.998;2023-04-25T01:17:52;6.65;;;4.57;;
30299;SDS011;17110;52.602;12.998;2023-04-25T01:20:18;9.82;;;5.53;;
30299;SDS011;17110;52.602;12.998;2023-04-25T01:22:46;8.65;;;4.70;;
30299;SDS011;17110;52.602;12.998;2023-04-25T01:25:11;8.88;;;4.63;;
30299;SDS011;17110;52.602;12.998;2023-04-25T01:27:37;12.25;;;5.55;;
30299;SDS011;17110;52.602;12.998;2023-04-25T01:30:03;10.88;;;5.65;;
30299;SDS011;17110;52.602;12.998;2023-04-25T01:32:30;12.75;;;5.50;;
30299;SDS011;17110;52.602;12.998;2023-04-25T01:35:03;8.63;;;4.90;;
30299;SDS011;17110;52.602;12.998;2023-04-25T01:37:34;13.13;;;6.05;;
30299;SDS011;17110;52.602;12.998;2023-04-25T01:40:00;9.55;;;5.40;;
30299;SDS011;17110;52.602;12.998;2023-04-25T01:42:26;8.40;;;5.85;;
30299;SDS011;17110;52.602;12.998;2023-04-25T01:44:52;8.43;;;5.53;;
30299;SDS011;17110;52.602;12.998;2023-04-25T01:47:18;9.95;;;5.90;;
30299;SDS011;17110;52.602;12.998;2023-04-25T01:49:43;10.82;;;6.38;;
30299;SDS011;17110;52.602;12.998;2023-04-25T01:52:09;9.63;;;5.50;;
30299;SDS011;17110;52.602;12.998;2023-04-25T01:54:35;9.52;;;5.07;;
30299;SDS011;17110;52.602;12.998;2023-04-25T01:57:00;9.20;;;5.55;;
30299;SDS011;17110;52.602;12.998;2023-04-25T01:59:26;9.90;;;5.90;;
30299;SDS011;17110;52.602;12.998;2023-04-25T02:01:52;10.38;;;6.70;;
30299;SDS011;17110;52.602;12.998;2023-04-25T02:04:17;11.40;;;5.80;;
30299;SDS011;17110;52.602;12.998;2023-04-25T02:06:43;10.45;;;6.00;;
30299;SDS011;17110;52.602;12.998;2023-04-25T02:09:08;10.43;;;6.20;;
30299;SDS011;17110;52.602;12.998;2023-04-25T02:11:34;9.68;;;6.15;;
30299;SDS011;17110;52.602;12.998;2023-04-25T02:14:00;8.55;;;6.03;;
30299;SDS011;17110;52.602;12.998;2023-04-25T02:16:25;10.70;;;6.63;;
30299;SDS011;17110;52.602;12.998;2023-04-25T02:18:51;10.45;;;5.63;;
30299;SDS011;17110;52.602;12.998;2023-04-25T02:21:17;13.55;;;6.57;;
30299;SDS011;17110;52.602;12.998;2023-04-25T02:23:43;13.48;;;7.03;;
30299;SDS011;17110;52.602;12.998;2023-04-25T02:26:10;12.45;;;6.18;;
30299;SDS011;17110;52.602;12.998;2023-04-25T02:28:36;10.43;;;6.05;;
30299;SDS011;17110;52.602;12.998;2023-04-25T02:31:01;14.05;;;6.40;;
30299;SDS011;17110;52.602;12.998;2023-04-25T02:33:27;11.05;;;6.55;;
30299;SDS011;17110;52.602;12.998;2023-04-25T02:35:53;13.32;;;6.75;;
30299;SDS011;17110;52.602;12.998;2023-04-25T02:38:18;10.68;;;6.32;;
30299;SDS011;17110;52.602;12.998;2023-04-25T02:40:43;9.57;;;6.72;;
30299;SDS011;17110;52.602;12.998;2023-04-25T02:43:09;10.40;;;6.78;;
30299;SDS011;17110;52.602;12.998;2023-04-25T02:45:35;13.02;;;7.28;;
30299;SDS011;17110;52.602;12.998;2023-04-25T02:48:00;17.85;;;7.97;;
30299;SDS011;17110;52.602;12.998;2023-04-25T02:50:27;13.38;;;6.93;;
30299;SDS011;17110;52.602;12.998;2023-04-25T02:52:52;12.95;;;7.13;;
30299;SDS011;17110;52.602;12.998;2023-04-25T02:55:18;11.45;;;7.25;;
30299;SDS011;17110;52.602;12.998;2023-04-25T02:57:43;13.23;;;6.95;;
30299;SDS011;17110;52.602;12.998;2023-04-25T03:00:09;11.57;;;6.90;;
30299;SDS011;17110;52.602;12.998;2023-04-25T03:02:36;12.68;;;6.88;;
30299;SDS011;17110;52.602;12.998;2023-04-25T03:05:02;11.50;;;7.05;;
30299;SDS011;17110;52.602;12.998;2023-04-25T03:07:28;12.07;;;7.35;;
30299;SDS011;17110;52.602;12.998;2023-04-25T03:09:53;12.50;;;6.78;;
30299;SDS011;17110;52.602;12.998;2023-04-25T03:12:20;10.50;;;7.35;;
30299;SDS011;17110;52.602;12.998;2023-04-25T03:14:45;11.80;;;7.70;;
30299;SDS011;17110;52.602;12.998;2023-04-25T03:17:11;14.25;;;7.35;;
30299;SDS011;17110;52.602;12.998;2023-04-25T03:19:36;11.00;;;6.78;;
30299;SDS011;17110;52.602;12.998;2023-04-25T03:22:02;12.80;;;7.00;;
30299;SDS011;17110;52.602;12.998;2023-04-25T03:24:27;11.75;;;6.82;;
30299;SDS011;17110;52.602;12.998;2023-04-25T03:26:53;7.63;;;6.55;;
30299;SDS011;17110;52.602;12.998;2023-04-25T03:29:18;11.52;;;6.93;;
30299;SDS011;17110;52.602;12.998;2023-04-25T03:31:44;12.05;;;7.18;;
30299;SDS011;17110;52.602;12.998;2023-04-25T03:34:10;11.90;;;7.00;;
30299;SDS011;17110;52.602;12.998;2023-04-25T03:36:35;14.32;;;7.53;;
30299;SDS011;17110;52.602;12.998;2023-04-25T03:39:01;14.32;;;7.38;;
30299;SDS011;17110;52.602;12.998;2023-04-25T03:41:27;9.25;;;6.90;;
30299;SDS011;17110;52.602;12.998;2023-04-25T03:43:53;14.10;;;7.63;;
30299;SDS011;17110;52.602;12.998;2023-04-25T03:46:18;11.95;;;7.47;;
30299;SDS011;17110;52.602;12.998;2023-04-25T03:48:44;10.90;;;7.03;;
30299;SDS011;17110;52.602;12.998;2023-04-25T03:51:09;10.65;;;6.65;;
30299;SDS011;17110;52.602;12.998;2023-04-25T03:53:35;12.57;;;7.25;;
30299;SDS011;17110;52.602;12.998;2023-04-25T03:56:00;9.82;;;6.88;;
30299;SDS011;17110;52.602;12.998;2023-04-25T03:58:26;13.50;;;7.22;;
30299;SDS011;17110;52.602;12.998;2023-04-25T04:00:51;10.55;;;6.80;;
30299;SDS011;17110;52.602;12.998;2023-04-25T04:03:16;8.88;;;6.00;;
30299;SDS011;17110;52.602;12.998;2023-04-25T04:05:42;12.45;;;6.75;;
30299;SDS011;17110;52.602;12.998;2023-04-25T04:08:07;13.68;;;7.47;;
30299;SDS011;17110;52.602;12.998;2023-04-25T04:10:33;11.43;;;6.72;;
30299;SDS011;17110;52.602;12.998;2023-04-25T04:12:59;10.82;;;6.53;;
30299;SDS011;17110;52.602;12.998;2023-04-25T04:15:25;8.60;;;6.75;;
30299;SDS011;17110;52.602;12.998;2023-04-25T04:17:50;10.25;;;6.63;;
30299;SDS011;17110;52.602;12.998;2023-04-25T04:20:16;10.52;;;6.53;;
30299;SDS011;17110;52.602;12.998;2023-04-25T04:22:41;11.55;;;6.25;;
30299;SDS011;17110;52.602;12.998;2023-04-25T04:25:07;7.32;;;5.80;;
30299;SDS011;17110;52.602;12.998;2023-04-25T04:27:33;13.00;;;6.07;;
30299;SDS011;17110;52.602;12.998;2023-04-25T04:29:59;15.32;;;7.07;;
30299;SDS011;17110;52.602;12.998;2023-04-25T04:32:25;13.98;;;6.93;;
30299;SDS011;17110;52.602;12.998;2023-04-25T04:34:50;10.27;;;6.38;;
30299;SDS011;17110;52.602;12.998;2023-04-25T04:37:17;9.88;;;5.80;;
30299;SDS011;17110;52.602;12.998;2023-04-25T04:39:42;10.35;;;6.68;;
30299;SDS011;17110;52.602;12.998;2023-04-25T04:42:08;10.68;;;6.10;;
30299;SDS011;17110;52.602;12.998;2023-04-25T04:44:33;9.40;;;6.07;;
30299;SDS011;17110;52.602;12.998;2023-04-25T04:47:00;9.27;;;6.13;;
30299;SDS011;17110;52.602;12.998;2023-04-25T04:49:26;9.48;;;5.95;;
30299;SDS011;17110;52.602;12.998;2023-04-25T04:51:51;9.98;;;6.00;;
30299;SDS011;17110;52.602;12.998;2023-04-25T04:54:17;8.70;;;5.25;;
30299;SDS011;17110;52.602;12.998;2023-04-25T04:56:42;10.75;;;6.82;;
30299;SDS011;17110;52.602;12.998;2023-04-25T04:59:08;10.65;;;5.90;;
30299;SDS011;17110;52.602;12.998;2023-04-25T05:01:34;7.97;;;6.60;;
30299;SDS011;17110;52.602;12.998;2023-04-25T05:04:02;9.52;;;6.53;;
30299;SDS011;17110;52.602;12.998;2023-04-25T05:06:28;12.23;;;6.13;;
30299;SDS011;17110;52.602;12.998;2023-04-25T05:08:55;11.95;;;6.18;;
30299;SDS011;17110;52.602;12.998;2023-04-25T05:11:21;15.27;;;7.03;;
30299;SDS011;17110;52.602;12.998;2023-04-25T05:13:48;11.32;;;6.90;;
30299;SDS011;17110;52.602;12.998;2023-04-25T05:16:14;15.68;;;7.85;;
30299;SDS011;17110;52.602;12.998;2023-04-25T05:18:40;12.82;;;6.97;;
30299;SDS011;17110;52.602;12.998;2023-04-25T05:21:06;10.93;;;7.22;;
30299;SDS011;17110;52.602;12.998;2023-04-25T05:23:32;12.90;;;8.50;;
30299;SDS011;17110;52.602;12.998;2023-04-25T05:25:58;15.30;;;8.27;;
30299;SDS011;17110;52.602;12.998;2023-04-25T05:28:23;11.40;;;8.27;;
30299;SDS011;17110;52.602;12.998;2023-04-25T05:30:49;14.80;;;8.95;;
30299;SDS011;17110;52.602;12.998;2023-04-25T05:33:15;14.30;;;8.73;;
30299;SDS011;17110;52.602;12.998;2023-04-25T05:35:41;11.75;;;8.48;;
30299;SDS011;17110;52.602;12.998;2023-04-25T05:38:07;15.00;;;8.50;;
30299;SDS011;17110;52.602;12.998;2023-04-25T05:40:32;13.65;;;8.77;;
30299;SDS011;17110;52.602;12.998;2023-04-25T05:42:58;14.93;;;9.07;;
30299;SDS011;17110;52.602;12.998;2023-04-25T05:45:23;15.80;;;8.80;;
30299;SDS011;17110;52.602;12.998;2023-04-25T05:47:49;17.00;;;9.52;;
30299;SDS011;17110;52.602;12.998;2023-04-25T05:50:14;17.70;;;9.07;;
30299;SDS011;17110;52.602;12.998;2023-04-25T05:52:40;18.85;;;9.20;;
30299;SDS011;17110;52.602;12.998;2023-04-25T05:55:05;13.07;;;8.98;;
30299;SDS011;17110;52.602;12.998;2023-04-25T05:57:31;16.48;;;9.20;;
30299;SDS011;17110;52.602;12.998;2023-04-25T05:59:57;14.85;;;8.63;;
30299;SDS011;17110;52.602;12.998;2023-04-25T06:02:22;11.65;;;8.73;;
30299;SDS011;17110;52.602;12.998;2023-04-25T06:04:50;13.27;;;9.07;;
30299;SDS011;17110;52.602;12.998;2023-04-25T06:07:16;13.15;;;9.10;;
30299;SDS011;17110;52.602;12.998;2023-04-25T06:09:43;16.52;;;9.80;;
30299;SDS011;17110;52.602;12.998;2023-04-25T06:12:09;14.02;;;9.23;;
30299;SDS011;17110;52.602;12.998;2023-04-25T06:14:34;15.00;;;8.60;;
30299;SDS011;17110;52.602;12.998;2023-04-25T06:17:00;13.70;;;8.75;;
30299;SDS011;17110;52.602;12.998;2023-04-25T06:19:31;11.95;;;8.68;;
30299;SDS011;17110;52.602;12.998;2023-04-25T06:21:57;14.23;;;8.82;;
30299;SDS011;17110;52.602;12.998;2023-04-25T06:24:23;12.32;;;8.63;;
30299;SDS011;17110;52.602;12.998;2023-04-25T06:26:48;10.70;;;8.00;;
30299;SDS011;17110;52.602;12.998;2023-04-25T06:29:14;12.93;;;8.02;;
30299;SDS011;17110;52.602;12.998;2023-04-25T06:31:39;12.50;;;8.63;;
30299;SDS011;17110;52.602;12.998;2023-04-25T06:34:05;13.18;;;8.77;;
30299;SDS011;17110;52.602;12.998;2023-04-25T06:36:30;11.38;;;8.40;;
30299;SDS011;17110;52.602;12.998;2023-04-25T06:38:56;13.85;;;8.85;;
30299;SDS011;17110;52.602;12.998;2023-04-25T06:41:22;18.17;;;8.25;;
30299;SDS011;17110;52.602;12.998;2023-04-25T06:43:47;17.90;;;7.88;;
30299;SDS011;17110;52.602;12.998;2023-04-25T06:46:13;11.15;;;7.07;;
30299;SDS011;17110;52.602;12.998;2023-04-25T06:48:38;15.15;;;8.30;;
30299;SDS011;17110;52.602;12.998;2023-04-25T06:51:04;14.90;;;7.50;;
30299;SDS011;17110;52.602;12.998;2023-04-25T06:53:29;16.33;;;8.25;;
30299;SDS011;17110;52.602;12.998;2023-04-25T06:55:55;13.10;;;6.72;;
30299;SDS011;17110;52.602;12.998;2023-04-25T06:58:20;14.35;;;6.38;;
30299;SDS011;17110;52.602;12.998;2023-04-25T07:00:46;20.83;;;7.47;;
30299;SDS011;17110;52.602;12.998;2023-04-25T07:03:11;19.98;;;7.20;;
30299;SDS011;17110;52.602;12.998;2023-04-25T07:05:37;16.25;;;6.68;;
30299;SDS011;17110;52.602;12.998;2023-04-25T07:08:02;17.85;;;6.97;;
30299;SDS011;17110;52.602;12.998;2023-04-25T07:10:28;19.90;;;7.15;;
30299;SDS011;17110;52.602;12.998;2023-04-25T07:12:54;17.98;;;6.93;;
30299;SDS011;17110;52.602;12.998;2023-04-25T07:15:20;22.83;;;7.88;;
30299;SDS011;17110;52.602;12.998;2023-04-25T07:17:45;18.17;;;7.18;;
30299;SDS011;17110;52.602;12.998;2023-04-25T07:20:11;22.35;;;6.85;;
30299;SDS011;17110;52.602;12.998;2023-04-25T07:22:37;23.10;;;7.43;;
30299;SDS011;17110;52.602;12.998;2023-04-25T07:25:02;26.15;;;7.38;;
30299;SDS011;17110;52.602;12.998;2023-04-25T07:27:29;20.83;;;7.15;;
30299;SDS011;17110;52.602;12.998;2023-04-25T07:29:55;24.27;;;7.85;;
30299;SDS011;17110;52.602;12.998;2023-04-25T07:32:21;28.30;;;7.45;;
30299;SDS011;17110;52.602;12.998;2023-04-25T07:34:46;29.65;;;7.47;;
30299;SDS011;17110;52.602;12.998;2023-04-25T07:37:13;21.55;;;6.97;;
30299;SDS011;17110;52.602;12.998;2023-04-25T07:39:39;22.55;;;7.35;;
30299;SDS011;17110;52.602;12.998;2023-04-25T07:42:04;22.05;;;6.68;;
30299;SDS011;17110;52.602;12.998;2023-04-25T07:44:33;23.95;;;6.85;;
30299;SDS011;17110;52.602;12.998;2023-04-25T07:49:29;21.58;;;6.25;;
30299;SDS011;17110;52.602;12.998;2023-04-25T07:51:55;21.00;;;7.38;;
30299;SDS011;17110;52.602;12.998;2023-04-25T07:54:20;20.25;;;6.30;;
30299;SDS011;17110;52.602;12.998;2023-04-25T07:56:46;22.08;;;6.72;;
30299;SDS011;17110;52.602;12.998;2023-04-25T07:59:11;19.23;;;6.70;;
30299;SDS011;17110;52.602;12.998;2023-04-25T08:01:37;24.85;;;7.22;;
30299;SDS011;17110;52.602;12.998;2023-04-25T08:04:02;18.45;;;6.68;;
30299;SDS011;17110;52.602;12.998;2023-04-25T08:06:28;25.35;;;7.07;;
30299;SDS011;17110;52.602;12.998;2023-04-25T08:08:53;22.25;;;6.70;;
30299;SDS011;17110;52.602;12.998;2023-04-25T08:11:19;20.38;;;6.43;;
30299;SDS011;17110;52.602;12.998;2023-04-25T08:13:45;19.73;;;5.53;;
30299;SDS011;17110;52.602;12.998;2023-04-25T08:16:10;18.58;;;6.20;;
30299;SDS011;17110;52.602;12.998;2023-04-25T08:18:36;18.70;;;6.22;;
30299;SDS011;17110;52.602;12.998;2023-04-25T08:21:01;21.10;;;6.18;;
30299;SDS011;17110;52.602;12.998;2023-04-25T08:23:27;20.50;;;5.70;;
30299;SDS011;17110;52.602;12.998;2023-04-25T08:25:52;17.85;;;5.82;;
30299;SDS011;17110;52.602;12.998;2023-04-25T08:28:18;17.52;;;5.88;;
30299;SDS011;17110;52.602;12.998;2023-04-25T08:30:43;19.90;;;5.82;;
30299;SDS011;17110;52.602;12.998;2023-04-25T08:33:09;22.02;;;6.25;;
30299;SDS011;17110;52.602;12.998;2023-04-25T08:35:35;18.10;;;5.45;;
30299;SDS011;17110;52.602;12.998;2023-04-25T08:38:01;20.05;;;5.68;;
30299;SDS011;17110;52.602;12.998;2023-04-25T08:40:27;24.98;;;6.15;;
30299;SDS011;17110;52.602;12.998;2023-04-25T08:42:59;21.55;;;6.45;;
30299;SDS011;17110;52.602;12.998;2023-04-25T08:45:28;18.77;;;5.57;;
30299;SDS011;17110;52.602;12.998;2023-04-25T08:47:56;22.40;;;5.38;;
30299;SDS011;17110;52.602;12.998;2023-04-25T08:50:22;16.58;;;5.55;;
30299;SDS011;17110;52.602;12.998;2023-04-25T08:52:48;32.17;;;5.25;;
30299;SDS011;17110;52.602;12.998;2023-04-25T08:55:17;12.75;;;4.32;;
30299;SDS011;17110;52.602;12.998;2023-04-25T08:57:44;20.17;;;5.68;;
30299;SDS011;17110;52.602;12.998;2023-04-25T09:00:10;14.32;;;4.32;;
30299;SDS011;17110;52.602;12.998;2023-04-25T09:02:37;9.70;;;3.67;;
30299;SDS011;17110;52.602;12.998;2023-04-25T09:05:04;16.42;;;5.30;;
30299;SDS011;17110;52.602;12.998;2023-04-25T09:07:31;20.10;;;4.95;;
30299;SDS011;17110;52.602;12.998;2023-04-25T09:09:57;16.33;;;4.68;;
30299;SDS011;17110;52.602;12.998;2023-04-25T09:12:28;15.70;;;4.57;;
30299;SDS011;17110;52.602;12.998;2023-04-25T09:15:05;17.15;;;4.30;;
30299;SDS011;17110;52.602;12.998;2023-04-25T09:17:35;19.60;;;4.40;;
30299;SDS011;17110;52.602;12.998;2023-04-25T09:20:05;18.60;;;4.20;;
30299;SDS011;17110;52.602;12.998;2023-04-25T09:22:36;16.60;;;4.82;;
30299;SDS011;17110;52.602;12.998;2023-04-25T09:25:02;14.52;;;4.20;;
30299;SDS011;17110;52.602;12.998;2023-04-25T09:27:29;14.65;;;4.72;;
30299;SDS011;17110;52.602;12.998;2023-04-25T09:29:58;16.05;;;4.72;;
30299;SDS011;17110;52.602;12.998;2023-04-25T09:32:27;20.13;;;4.75;;
30299;SDS011;17110;52.602;12.998;2023-04-25T09:34:53;13.15;;;4.07;;
30299;SDS011;17110;52.602;12.998;2023-04-25T09:37:21;11.45;;;4.10;;
30299;SDS011;17110;52.602;12.998;2023-04-25T09:39:55;14.15;;;3.70;;
30299;SDS011;17110;52.602;12.998;2023-04-25T09:42:24;9.05;;;3.72;;
30299;SDS011;17110;52.602;12.998;2023-04-25T09:44:54;10.13;;;4.18;;
30299;SDS011;17110;52.602;12.998;2023-04-25T09:47:22;14.00;;;4.00;;
30299;SDS011;17110;52.602;12.998;2023-04-25T09:49:49;13.45;;;4.68;;
30299;SDS011;17110;52.602;12.998;2023-04-25T09:52:17;13.07;;;4.45;;
30299;SDS011;17110;52.602;12.998;2023-04-25T09:54:47;15.77;;;4.57;;
30299;SDS011;17110;52.602;12.998;2023-04-25T09:59:44;12.75;;;3.95;;
30299;SDS011;17110;52.602;12.998;2023-04-25T10:02:10;14.30;;;4.20;;
30299;SDS011;17110;52.602;12.998;2023-04-25T10:04:37;10.98;;;4.18;;
30299;SDS011;17110;52.602;12.998;2023-04-25T10:07:07;14.50;;;4.65;;
30299;SDS011;17110;52.602;12.998;2023-04-25T10:09:34;12.73;;;3.88;;
30299;SDS011;17110;52.602;12.998;2023-04-25T10:12:02;10.45;;;3.50;;
30299;SDS011;17110;52.602;12.998;2023-04-25T10:14:31;9.15;;;3.45;;
30299;SDS011;17110;52.602;12.998;2023-04-25T10:17:00;8.18;;;3.25;;
30299;SDS011;17110;52.602;12.998;2023-04-25T10:19:26;12.55;;;4.13;;
30299;SDS011;17110;52.602;12.998;2023-04-25T10:22:03;15.23;;;4.22;;
30299;SDS011;17110;52.602;12.998;2023-04-25T10:24:39;8.73;;;3.53;;
30299;SDS011;17110;52.602;12.998;2023-04-25T10:27:06;22.27;;;5.00;;
30299;SDS011;17110;52.602;12.998;2023-04-25T10:29:32;12.25;;;4.03;;
30299;SDS011;17110;52.602;12.998;2023-04-25T10:31:57;15.32;;;3.42;;
30299;SDS011;17110;52.602;12.998;2023-04-25T10:40:38;11.23;;;4.05;;
30299;SDS011;17110;52.602;12.998;2023-04-25T10:48:49;12.35;;;3.42;;
30299;SDS011;17110;52.602;12.998;2023-04-25T10:51:23;10.20;;;3.67;;
30299;SDS011;17110;52.602;12.998;2023-04-25T10:53:58;8.88;;;2.85;;
30299;SDS011;17110;52.602;12.998;2023-04-25T10:58:51;6.88;;;2.88;;
30299;SDS011;17110;52.602;12.998;2023-04-25T11:01:27;9.00;;;2.95;;
30299;SDS011;17110;52.602;12.998;2023-04-25T11:04:20;11.57;;;3.65;;
30299;SDS011;17110;52.602;12.998;2023-04-25T11:09:43;8.75;;;2.83;;
30299;SDS011;17110;52.602;12.998;2023-04-25T11:12:10;19.77;;;3.95;;
30299;SDS011;17110;52.602;12.998;2023-04-25T11:14:40;8.23;;;3.15;;
30299;SDS011;17110;52.602;12.998;2023-04-25T11:23:06;9.55;;;3.40;;
30299;SDS011;17110;52.602;12.998;2023-04-25T11:25:32;9.00;;;3.63;;
30299;SDS011;17110;52.602;12.998;2023-04-25T11:27:59;9.75;;;3.88;;
30299;SDS011;17110;52.602;12.998;2023-04-25T11:30:26;14.52;;;3.80;;
30299;SDS011;17110;52.602;12.998;2023-04-25T11:32:55;13.57;;;3.95;;
30299;SDS011;17110;52.602;12.998;2023-04-25T11:35:20;15.63;;;4.00;;
30299;SDS011;17110;52.602;12.998;2023-04-25T11:37:48;13.55;;;3.65;;
30299;SDS011;17110;52.602;12.998;2023-04-25T11:40:14;12.00;;;4.25;;
30299;SDS011;17110;52.602;12.998;2023-04-25T11:42:43;12.52;;;3.65;;
30299;SDS011;17110;52.602;12.998;2023-04-25T11:45:10;8.30;;;3.90;;
30299;SDS011;17110;52.602;12.998;2023-04-25T11:47:36;12.73;;;4.18;;
30299;SDS011;17110;52.602;12.998;2023-04-25T11:50:03;10.70;;;3.80;;
30299;SDS011;17110;52.602;12.998;2023-04-25T11:52:37;7.70;;;3.38;;
30299;SDS011;17110;52.602;12.998;2023-04-25T11:55:04;8.80;;;3.38;;
30299;SDS011;17110;52.602;12.998;2023-04-25T11:57:32;8.05;;;3.40;;
30299;SDS011;17110;52.602;12.998;2023-04-25T12:00:08;9.70;;;3.25;;
30299;SDS011;17110;52.602;12.998;2023-04-25T12:02:37;9.30;;;3.30;;
30299;SDS011;17110;52.602;12.998;2023-04-25T12:05:06;9.05;;;3.25;;
30299;SDS011;17110;52.602;12.998;2023-04-25T12:07:33;12.93;;;4.30;;
30299;SDS011;17110;52.602;12.998;2023-04-25T12:09:59;11.13;;;3.53;;
30299;SDS011;17110;52.602;12.998;2023-04-25T12:12:32;15.97;;;4.07;;
30299;SDS011;17110;52.602;12.998;2023-04-25T12:15:07;13.32;;;4.68;;
30299;SDS011;17110;52.602;12.998;2023-04-25T12:17:38;14.68;;;4.07;;
30299;SDS011;17110;52.602;12.998;2023-04-25T12:20:10;12.35;;;3.67;;
30299;SDS011;17110;52.602;12.998;2023-04-25T12:22:40;10.00;;;3.42;;
30299;SDS011;17110;52.602;12.998;2023-04-25T12:25:10;10.50;;;3.85;;
30299;SDS011;17110;52.602;12.998;2023-04-25T12:27:54;10.88;;;3.65;;
30299;SDS011;17110;52.602;12.998;2023-04-25T12:30:19;11.02;;;3.35;;
30299;SDS011;17110;52.602;12.998;2023-04-25T12:32:45;9.73;;;3.08;;
30299;SDS011;17110;52.602;12.998;2023-04-25T12:35:10;13.25;;;3.30;;
30299;SDS011;17110;52.602;12.998;2023-04-25T12:37:36;12.63;;;3.75;;
30299;SDS011;17110;52.602;12.998;2023-04-25T12:40:01;9.10;;;3.20;;
30299;SDS011;17110;52.602;12.998;2023-04-25T12:42:29;13.48;;;2.80;;
30299;SDS011;17110;52.602;12.998;2023-04-25T12:44:54;8.13;;;2.65;;
30299;SDS011;17110;52.602;12.998;2023-04-25T12:47:20;9.60;;;3.22;;
30299;SDS011;17110;52.602;12.998;2023-04-25T12:49:45;15.38;;;3.40;;
30299;SDS011;17110;52.602;12.998;2023-04-25T12:52:11;9.23;;;2.80;;
30299;SDS011;17110;52.602;12.998;2023-04-25T12:54:36;11.85;;;3.03;;
30299;SDS011;17110;52.602;12.998;2023-04-25T12:57:03;12.27;;;3.67;;
30299;SDS011;17110;52.602;12.998;2023-04-25T12:59:29;11.35;;;3.70;;
30299;SDS011;17110;52.602;12.998;2023-04-25T13:01:55;9.02;;;3.38;;
30299;SDS011;17110;52.602;12.998;2023-04-25T13:04:20;9.15;;;3.30;;
30299;SDS011;17110;52.602;12.998;2023-04-25T13:06:46;22.65;;;4.60;;
30299;SDS011;17110;52.602;12.998;2023-04-25T13:09:12;8.23;;;2.88;;
30299;SDS011;17110;52.602;12.998;2023-04-25T13:11:37;9.95;;;2.60;;
30299;SDS011;17110;52.602;12.998;2023-04-25T13:14:03;6.75;;;3.08;;
30299;SDS011;17110;52.602;12.998;2023-04-25T13:16:29;7.15;;;2.70;;
30299;SDS011;17110;52.602;12.998;2023-04-25T13:18:55;10.25;;;3.30;;
30299;SDS011;17110;52.602;12.998;2023-04-25T13:21:21;6.70;;;2.78;;
30299;SDS011;17110;52.602;12.998;2023-04-25T13:23:46;7.47;;;2.88;;
30299;SDS011;17110;52.602;12.998;2023-04-25T13:26:12;7.15;;;3.00;;
30299;SDS011;17110;52.602;12.998;2023-04-25T13:28:38;8.80;;;2.97;;
30299;SDS011;17110;52.602;12.998;2023-04-25T13:31:05;10.52;;;3.50;;
30299;SDS011;17110;52.602;12.998;2023-04-25T13:33:31;11.90;;;3.05;;
30299;SDS011;17110;52.602;12.998;2023-04-25T13:35:56;10.07;;;2.92;;
30299;SDS011;17110;52.602;12.998;2023-04-25T13:38:23;7.78;;;2.88;;
30299;SDS011;17110;52.602;12.998;2023-04-25T13:40:49;9.50;;;3.42;;
30299;SDS011;17110;52.602;12.998;2023-04-25T13:43:17;13.27;;;3.00;;
30299;SDS011;17110;52.602;12.998;2023-04-25T13:45:44;16.63;;;3.55;;
30299;SDS011;17110;52.602;12.998;2023-04-25T13:48:09;10.07;;;3.00;;
30299;SDS011;17110;52.602;12.998;2023-04-25T13:50:35;7.65;;;2.83;;
30299;SDS011;17110;52.602;12.998;2023-04-25T13:53:00;11.82;;;3.22;;
30299;SDS011;17110;52.602;12.998;2023-04-25T13:55:26;7.93;;;2.97;;
30299;SDS011;17110;52.602;12.998;2023-04-25T13:57:51;9.60;;;2.88;;
30299;SDS011;17110;52.602;12.998;2023-04-25T14:00:17;15.10;;;3.53;;
30299;SDS011;17110;52.602;12.998;2023-04-25T14:02:43;7.40;;;2.47;;
30299;SDS011;17110;52.602;12.998;2023-04-25T14:05:08;8.88;;;2.75;;
30299;SDS011;17110;52.602;12.998;2023-04-25T14:07:34;9.43;;;2.78;;
30299;SDS011;17110;52.602;12.998;2023-04-25T14:10:00;10.77;;;2.67;;
30299;SDS011;17110;52.602;12.998;2023-04-25T14:12:25;10.43;;;3.15;;
30299;SDS011;17110;52.602;12.998;2023-04-25T14:14:51;8.10;;;2.65;;
30299;SDS011;17110;52.602;12.998;2023-04-25T14:17:18;12.75;;;2.95;;
30299;SDS011;17110;52.602;12.998;2023-04-25T14:19:44;9.60;;;3.17;;
30299;SDS011;17110;52.602;12.998;2023-04-25T14:22:12;9.32;;;2.58;;
30299;SDS011;17110;52.602;12.998;2023-04-25T14:24:38;8.10;;;2.55;;
30299;SDS011;17110;52.602;12.998;2023-04-25T14:27:04;6.07;;;2.45;;
30299;SDS011;17110;52.602;12.998;2023-04-25T14:29:29;9.15;;;2.42;;
30299;SDS011;17110;52.602;12.998;2023-04-25T14:31:55;6.72;;;2.63;;
30299;SDS011;17110;52.602;12.998;2023-04-25T14:34:22;7.78;;;2.28;;
30299;SDS011;17110;52.602;12.998;2023-04-25T14:36:48;4.22;;;2.40;;
30299;SDS011;17110;52.602;12.998;2023-04-25T14:39:13;8.10;;;3.20;;
30299;SDS011;17110;52.602;12.998;2023-04-25T14:41:39;7.25;;;4.78;;
30299;SDS011;17110;52.602;12.998;2023-04-25T14:44:05;5.50;;;2.10;;
30299;SDS011;17110;52.602;12.998;2023-04-25T14:46:30;4.68;;;1.40;;
30299;SDS011;17110;52.602;12.998;2023-04-25T14:48:56;5.00;;;1.85;;
30299;SDS011;17110;52.602;12.998;2023-04-25T14:51:22;6.18;;;2.05;;
30299;SDS011;17110;52.602;12.998;2023-04-25T14:53:47;7.78;;;1.90;;